sensor_id;sensor_type;location;lat;lon;timestamp;P1;durP1;ratioP1;P2;durP2;ratioP2
27895;SDS011;15241;48.374;10.876;2023-06-26T00:00:11;8.60;;;7.08;;
27895;SDS011;15241;48.374;10.876;2023-06-26T00:05:10;8.93;;;7.28;;
27895;SDS011;15241;48.374;10.876;2023-06-26T00:10:09;8.75;;;7.42;;
27895;SDS011;15241;48.374;10.876;2023-06-26T00:15:09;8.95;;;7.92;;
27895;SDS011;15241;48.374;10.876;2023-06-26T00:20:09;10.93;;;7.70;;
27895;SDS011;15241;48.374;10.876;2023-06-26T00:25:08;9.38;;;7.85;;
27895;SDS011;15241;48.374;10.876;2023-06-26T00:30:07;10.15;;;8.03;;
27895;SDS011;15241;48.374;10.876;2023-06-26T00:35:08;9.53;;;7.55;;
27895;SDS011;15241;48.374;10.876;2023-06-26T00:40:08;8.60;;;7.15;;
27895;SDS011;15241;48.374;10.876;2023-06-26T00:45:08;9.05;;;7.30;;
27895;SDS011;15241;48.374;10.876;2023-06-26T00:50:07;8.90;;;7.33;;
27895;SDS011;15241;48.374;10.876;2023-06-26T00:55:07;10.00;;;7.70;;
27895;SDS011;15241;48.374;10.876;2023-06-26T01:00:08;11.38;;;7.78;;
27895;SDS011;15241;48.374;10.876;2023-06-26T01:05:08;9.10;;;7.30;;
27895;SDS011;15241;48.374;10.876;2023-06-26T01:10:07;8.53;;;6.95;;
27895;SDS011;15241;48.374;10.876;2023-06-26T01:15:08;10.35;;;7.65;;
27895;SDS011;15241;48.374;10.876;2023-06-26T01:20:09;11.78;;;7.90;;
27895;SDS011;15241;48.374;10.876;2023-06-26T01:25:12;10.82;;;7.85;;
27895;SDS011;15241;48.374;10.876;2023-06-26T01:30:12;9.88;;;7.87;;
27895;SDS011;15241;48.374;10.876;2023-06-26T01:35:12;9.60;;;8.03;;
27895;SDS011;15241;48.374;10.876;2023-06-26T01:40:12;8.63;;;7.30;;
27895;SDS011;15241;48.374;10.876;2023-06-26T01:45:12;11.38;;;7.97;;
27895;SDS011;15241;48.374;10.876;2023-06-26T01:50:24;10.60;;;8.40;;
27895;SDS011;15241;48.374;10.876;2023-06-26T01:55:28;12.73;;;7.75;;
27895;SDS011;15241;48.374;10.876;2023-06-26T02:00:29;10.60;;;8.08;;
27895;SDS011;15241;48.374;10.876;2023-06-26T02:05:28;10.78;;;8.45;;
27895;SDS011;15241;48.374;10.876;2023-06-26T02:10:27;12.00;;;8.65;;
27895;SDS011;15241;48.374;10.876;2023-06-26T02:15:26;11.43;;;8.78;;
27895;SDS011;15241;48.374;10.876;2023-06-26T02:20:25;11.95;;;8.68;;
27895;SDS011;15241;48.374;10.876;2023-06-26T02:25:24;11.25;;;9.23;;
27895;SDS011;15241;48.374;10.876;2023-06-26T02:30:23;11.50;;;9.05;;
27895;SDS011;15241;48.374;10.876;2023-06-26T02:35:21;12.03;;;9.18;;
27895;SDS011;15241;48.374;10.876;2023-06-26T02:40:20;12.80;;;9.55;;
27895;SDS011;15241;48.374;10.876;2023-06-26T02:45:19;13.45;;;9.70;;
27895;SDS011;15241;48.374;10.876;2023-06-26T02:50:18;14.20;;;10.45;;
27895;SDS011;15241;48.374;10.876;2023-06-26T02:55:17;11.85;;;9.18;;
27895;SDS011;15241;48.374;10.876;2023-06-26T03:00:17;15.00;;;10.35;;
27895;SDS011;15241;48.374;10.876;2023-06-26T03:05:17;14.85;;;10.78;;
27895;SDS011;15241;48.374;10.876;2023-06-26T03:10:16;13.32;;;9.58;;
27895;SDS011;15241;48.374;10.876;2023-06-26T03:15:14;13.68;;;8.85;;
27895;SDS011;15241;48.374;10.876;2023-06-26T03:20:13;13.45;;;9.65;;
27895;SDS011;15241;48.374;10.876;2023-06-26T03:25:13;14.03;;;10.60;;
27895;SDS011;15241;48.374;10.876;2023-06-26T03:30:13;14.70;;;9.75;;
27895;SDS011;15241;48.374;10.876;2023-06-26T03:35:12;14.58;;;9.70;;
27895;SDS011;15241;48.374;10.876;2023-06-26T03:40:11;13.28;;;10.23;;
27895;SDS011;15241;48.374;10.876;2023-06-26T03:45:10;13.00;;;9.18;;
27895;SDS011;15241;48.374;10.876;2023-06-26T03:50:10;12.45;;;10.15;;
27895;SDS011;15241;48.374;10.876;2023-06-26T03:55:09;14.15;;;10.18;;
27895;SDS011;15241;48.374;10.876;2023-06-26T04:00:10;14.20;;;9.65;;
27895;SDS011;15241;48.374;10.876;2023-06-26T04:05:11;15.20;;;9.67;;
27895;SDS011;15241;48.374;10.876;2023-06-26T04:10:10;15.13;;;10.70;;
27895;SDS011;15241;48.374;10.876;2023-06-26T04:15:10;13.85;;;10.48;;
27895;SDS011;15241;48.374;10.876;2023-06-26T04:20:09;14.20;;;10.43;;
27895;SDS011;15241;48.374;10.876;2023-06-26T04:25:08;14.75;;;10.38;;
27895;SDS011;15241;48.374;10.876;2023-06-26T04:30:09;13.65;;;9.98;;
27895;SDS011;15241;48.374;10.876;2023-06-26T04:35:09;11.97;;;9.60;;
27895;SDS011;15241;48.374;10.876;2023-06-26T04:40:09;14.75;;;9.88;;
27895;SDS011;15241;48.374;10.876;2023-06-26T04:45:09;15.83;;;10.18;;
27895;SDS011;15241;48.374;10.876;2023-06-26T04:50:08;16.62;;;10.55;;
27895;SDS011;15241;48.374;10.876;2023-06-26T04:55:07;12.82;;;9.65;;
27895;SDS011;15241;48.374;10.876;2023-06-26T05:00:07;11.73;;;9.25;;
27895;SDS011;15241;48.374;10.876;2023-06-26T05:05:08;11.95;;;9.23;;
27895;SDS011;15241;48.374;10.876;2023-06-26T05:10:08;14.23;;;9.98;;
27895;SDS011;15241;48.374;10.876;2023-06-26T05:15:08;12.85;;;9.18;;
27895;SDS011;15241;48.374;10.876;2023-06-26T05:20:09;13.32;;;9.55;;
27895;SDS011;15241;48.374;10.876;2023-06-26T05:25:09;13.85;;;9.10;;
27895;SDS011;15241;48.374;10.876;2023-06-26T05:30:11;10.08;;;8.30;;
27895;SDS011;15241;48.374;10.876;2023-06-26T05:35:12;13.15;;;9.33;;
27895;SDS011;15241;48.374;10.876;2023-06-26T05:40:14;13.28;;;9.68;;
27895;SDS011;15241;48.374;10.876;2023-06-26T05:45:14;12.35;;;8.20;;
27895;SDS011;15241;48.374;10.876;2023-06-26T05:50:15;10.05;;;8.35;;
27895;SDS011;15241;48.374;10.876;2023-06-26T05:55:16;11.63;;;8.25;;
27895;SDS011;15241;48.374;10.876;2023-06-26T06:00:16;12.93;;;8.30;;
27895;SDS011;15241;48.374;10.876;2023-06-26T06:05:17;13.00;;;8.35;;
27895;SDS011;15241;48.374;10.876;2023-06-26T06:10:16;10.25;;;8.55;;
27895;SDS011;15241;48.374;10.876;2023-06-26T06:15:15;14.75;;;7.87;;
27895;SDS011;15241;48.374;10.876;2023-06-26T06:20:14;9.48;;;6.62;;
27895;SDS011;15241;48.374;10.876;2023-06-26T06:25:14;8.83;;;6.85;;
27895;SDS011;15241;48.374;10.876;2023-06-26T06:30:13;9.13;;;6.90;;
27895;SDS011;15241;48.374;10.876;2023-06-26T06:35:14;8.88;;;7.50;;
27895;SDS011;15241;48.374;10.876;2023-06-26T06:40:13;7.67;;;6.87;;
27895;SDS011;15241;48.374;10.876;2023-06-26T06:45:12;8.68;;;6.90;;
27895;SDS011;15241;48.374;10.876;2023-06-26T06:50:10;9.05;;;7.37;;
27895;SDS011;15241;48.374;10.876;2023-06-26T06:55:09;8.05;;;7.22;;
27895;SDS011;15241;48.374;10.876;2023-06-26T07:00:10;8.23;;;6.60;;
27895;SDS011;15241;48.374;10.876;2023-06-26T07:05:10;11.50;;;7.47;;
27895;SDS011;15241;48.374;10.876;2023-06-26T07:10:11;9.20;;;6.42;;
27895;SDS011;15241;48.374;10.876;2023-06-26T07:15:11;8.95;;;7.12;;
27895;SDS011;15241;48.374;10.876;2023-06-26T07:20:10;7.65;;;6.85;;
27895;SDS011;15241;48.374;10.876;2023-06-26T07:25:09;9.33;;;6.78;;
27895;SDS011;15241;48.374;10.876;2023-06-26T07:30:09;8.90;;;6.95;;
27895;SDS011;15241;48.374;10.876;2023-06-26T07:35:09;8.35;;;6.78;;
27895;SDS011;15241;48.374;10.876;2023-06-26T07:40:09;6.87;;;6.17;;
27895;SDS011;15241;48.374;10.876;2023-06-26T07:45:09;10.10;;;7.53;;
27895;SDS011;15241;48.374;10.876;2023-06-26T07:50:12;6.50;;;5.90;;
27895;SDS011;15241;48.374;10.876;2023-06-26T07:55:12;11.00;;;7.10;;
27895;SDS011;15241;48.374;10.876;2023-06-26T08:00:12;6.67;;;5.97;;
27895;SDS011;15241;48.374;10.876;2023-06-26T08:05:11;11.35;;;6.15;;
27895;SDS011;15241;48.374;10.876;2023-06-26T08:10:10;7.12;;;6.35;;
27895;SDS011;15241;48.374;10.876;2023-06-26T08:15:09;7.60;;;6.35;;
27895;SDS011;15241;48.374;10.876;2023-06-26T08:20:10;5.87;;;5.28;;
27895;SDS011;15241;48.374;10.876;2023-06-26T08:25:10;6.60;;;5.85;;
27895;SDS011;15241;48.374;10.876;2023-06-26T08:30:10;7.75;;;6.10;;
27895;SDS011;15241;48.374;10.876;2023-06-26T08:35:09;7.12;;;6.15;;
27895;SDS011;15241;48.374;10.876;2023-06-26T08:40:09;8.38;;;6.35;;
27895;SDS011;15241;48.374;10.876;2023-06-26T08:45:09;9.18;;;6.00;;
27895;SDS011;15241;48.374;10.876;2023-06-26T08:50:10;6.37;;;5.78;;
27895;SDS011;15241;48.374;10.876;2023-06-26T09:06:18;5.60;;;4.95;;
27895;SDS011;15241;48.374;10.876;2023-06-26T09:11:17;6.87;;;5.10;;
27895;SDS011;15241;48.374;10.876;2023-06-26T09:16:16;5.95;;;5.35;;
27895;SDS011;15241;48.374;10.876;2023-06-26T09:21:17;6.62;;;5.45;;
27895;SDS011;15241;48.374;10.876;2023-06-26T09:26:16;6.10;;;5.50;;
27895;SDS011;15241;48.374;10.876;2023-06-26T09:31:15;6.87;;;5.20;;
27895;SDS011;15241;48.374;10.876;2023-06-26T09:36:19;5.35;;;4.78;;
27895;SDS011;15241;48.374;10.876;2023-06-26T09:41:18;5.28;;;4.75;;
27895;SDS011;15241;48.374;10.876;2023-06-26T09:46:23;5.25;;;4.75;;
27895;SDS011;15241;48.374;10.876;2023-06-26T09:51:22;5.22;;;4.72;;
27895;SDS011;15241;48.374;10.876;2023-06-26T09:56:21;5.90;;;4.87;;
27895;SDS011;15241;48.374;10.876;2023-06-26T10:01:22;7.28;;;5.12;;
27895;SDS011;15241;48.374;10.876;2023-06-26T10:06:22;4.62;;;4.22;;
27895;SDS011;15241;48.374;10.876;2023-06-26T10:11:23;9.63;;;4.67;;
27895;SDS011;15241;48.374;10.876;2023-06-26T10:16:26;4.55;;;4.10;;
27895;SDS011;15241;48.374;10.876;2023-06-26T10:21:26;4.65;;;4.25;;
27895;SDS011;15241;48.374;10.876;2023-06-26T10:26:26;5.17;;;4.67;;
27895;SDS011;15241;48.374;10.876;2023-06-26T10:31:28;5.03;;;4.60;;
27895;SDS011;15241;48.374;10.876;2023-06-26T10:36:29;5.55;;;4.85;;
27895;SDS011;15241;48.374;10.876;2023-06-26T10:41:28;7.00;;;5.35;;
27895;SDS011;15241;48.374;10.876;2023-06-26T10:46:33;5.08;;;4.58;;
27895;SDS011;15241;48.374;10.876;2023-06-26T10:51:47;4.90;;;4.42;;
27895;SDS011;15241;48.374;10.876;2023-06-26T10:56:47;5.30;;;4.75;;
27895;SDS011;15241;48.374;10.876;2023-06-26T11:01:54;5.22;;;4.72;;
27895;SDS011;15241;48.374;10.876;2023-06-26T11:06:52;6.03;;;4.97;;
27895;SDS011;15241;48.374;10.876;2023-06-26T11:12:01;5.97;;;5.22;;
27895;SDS011;15241;48.374;10.876;2023-06-26T11:17:05;7.17;;;5.20;;
27895;SDS011;15241;48.374;10.876;2023-06-26T11:22:04;6.12;;;5.30;;
27895;SDS011;15241;48.374;10.876;2023-06-26T11:27:04;6.78;;;5.28;;
27895;SDS011;15241;48.374;10.876;2023-06-26T11:32:05;6.03;;;5.50;;
27895;SDS011;15241;48.374;10.876;2023-06-26T11:37:05;5.72;;;5.20;;
27895;SDS011;15241;48.374;10.876;2023-06-26T11:42:05;6.50;;;5.55;;
27895;SDS011;15241;48.374;10.876;2023-06-26T11:47:05;6.15;;;5.58;;
27895;SDS011;15241;48.374;10.876;2023-06-26T11:52:05;7.85;;;5.37;;
27895;SDS011;15241;48.374;10.876;2023-06-26T11:57:04;7.92;;;5.30;;
27895;SDS011;15241;48.374;10.876;2023-06-26T12:02:06;8.45;;;5.15;;
27895;SDS011;15241;48.374;10.876;2023-06-26T12:07:07;5.08;;;4.67;;
27895;SDS011;15241;48.374;10.876;2023-06-26T12:12:08;6.42;;;5.08;;
27895;SDS011;15241;48.374;10.876;2023-06-26T12:17:09;5.67;;;5.10;;
27895;SDS011;15241;48.374;10.876;2023-06-26T12:22:09;5.10;;;4.67;;
27895;SDS011;15241;48.374;10.876;2023-06-26T12:27:08;5.80;;;5.20;;
27895;SDS011;15241;48.374;10.876;2023-06-26T12:32:08;5.33;;;4.83;;
27895;SDS011;15241;48.374;10.876;2023-06-26T12:37:08;5.17;;;4.72;;
27895;SDS011;15241;48.374;10.876;2023-06-26T12:42:08;12.20;;;4.92;;
27895;SDS011;15241;48.374;10.876;2023-06-26T12:47:17;4.85;;;4.45;;
27895;SDS011;15241;48.374;10.876;2023-06-26T12:52:18;5.62;;;4.65;;
27895;SDS011;15241;48.374;10.876;2023-06-26T12:57:19;5.35;;;4.83;;
27895;SDS011;15241;48.374;10.876;2023-06-26T13:02:18;5.70;;;5.20;;
27895;SDS011;15241;48.374;10.876;2023-06-26T13:07:17;7.25;;;4.72;;
27895;SDS011;15241;48.374;10.876;2023-06-26T13:12:15;5.40;;;4.75;;
27895;SDS011;15241;48.374;10.876;2023-06-26T13:17:14;5.20;;;4.70;;
27895;SDS011;15241;48.374;10.876;2023-06-26T13:22:13;5.20;;;4.80;;
27895;SDS011;15241;48.374;10.876;2023-06-26T13:27:13;5.47;;;5.08;;
27895;SDS011;15241;48.374;10.876;2023-06-26T13:32:12;8.58;;;5.35;;
27895;SDS011;15241;48.374;10.876;2023-06-26T13:37:11;5.58;;;5.03;;
27895;SDS011;15241;48.374;10.876;2023-06-26T13:42:10;7.47;;;5.50;;
27895;SDS011;15241;48.374;10.876;2023-06-26T13:47:10;5.37;;;4.90;;
27895;SDS011;15241;48.374;10.876;2023-06-26T13:52:09;5.50;;;5.05;;
27895;SDS011;15241;48.374;10.876;2023-06-26T13:57:08;6.20;;;5.60;;
27895;SDS011;15241;48.374;10.876;2023-06-26T14:02:07;5.60;;;5.10;;
27895;SDS011;15241;48.374;10.876;2023-06-26T14:07:06;6.00;;;5.50;;
27895;SDS011;15241;48.374;10.876;2023-06-26T14:12:07;5.72;;;5.22;;
27895;SDS011;15241;48.374;10.876;2023-06-26T14:17:06;9.05;;;5.20;;
27895;SDS011;15241;48.374;10.876;2023-06-26T14:22:05;6.72;;;6.15;;
27895;SDS011;15241;48.374;10.876;2023-06-26T14:27:05;6.12;;;5.62;;
27895;SDS011;15241;48.374;10.876;2023-06-26T14:32:05;7.85;;;5.33;;
27895;SDS011;15241;48.374;10.876;2023-06-26T14:37:05;6.80;;;5.97;;
27895;SDS011;15241;48.374;10.876;2023-06-26T14:42:05;5.55;;;5.05;;
27895;SDS011;15241;48.374;10.876;2023-06-26T14:47:05;7.37;;;5.58;;
27895;SDS011;15241;48.374;10.876;2023-06-26T14:52:05;6.60;;;6.00;;
27895;SDS011;15241;48.374;10.876;2023-06-26T14:57:07;6.22;;;5.25;;
27895;SDS011;15241;48.374;10.876;2023-06-26T15:02:06;8.33;;;5.35;;
27895;SDS011;15241;48.374;10.876;2023-06-26T15:07:05;9.85;;;5.65;;
27895;SDS011;15241;48.374;10.876;2023-06-26T15:12:05;6.62;;;6.03;;
27895;SDS011;15241;48.374;10.876;2023-06-26T15:17:05;8.60;;;5.75;;
27895;SDS011;15241;48.374;10.876;2023-06-26T15:22:05;10.53;;;6.70;;
27895;SDS011;15241;48.374;10.876;2023-06-26T15:27:05;6.50;;;5.75;;
27895;SDS011;15241;48.374;10.876;2023-06-26T15:32:05;7.28;;;6.00;;
27895;SDS011;15241;48.374;10.876;2023-06-26T15:37:05;6.70;;;5.90;;
27895;SDS011;15241;48.374;10.876;2023-06-26T15:42:05;8.65;;;6.65;;
27895;SDS011;15241;48.374;10.876;2023-06-26T15:47:05;6.45;;;5.85;;
27895;SDS011;15241;48.374;10.876;2023-06-26T15:52:05;8.55;;;5.30;;
27895;SDS011;15241;48.374;10.876;2023-06-26T15:57:06;17.75;;;6.65;;
27895;SDS011;15241;48.374;10.876;2023-06-26T16:02:05;19.32;;;7.08;;
27895;SDS011;15241;48.374;10.876;2023-06-26T16:07:04;20.08;;;7.40;;
27895;SDS011;15241;48.374;10.876;2023-06-26T16:12:04;8.78;;;7.53;;
27895;SDS011;15241;48.374;10.876;2023-06-26T16:17:04;8.38;;;7.40;;
27895;SDS011;15241;48.374;10.876;2023-06-26T16:22:05;10.05;;;8.50;;
27895;SDS011;15241;48.374;10.876;2023-06-26T16:27:05;14.25;;;8.73;;
27895;SDS011;15241;48.374;10.876;2023-06-26T16:32:06;13.55;;;8.00;;
27895;SDS011;15241;48.374;10.876;2023-06-26T16:37:05;12.70;;;7.37;;
27895;SDS011;15241;48.374;10.876;2023-06-26T16:42:05;9.10;;;6.55;;
27895;SDS011;15241;48.374;10.876;2023-06-26T16:47:06;10.70;;;7.62;;
27895;SDS011;15241;48.374;10.876;2023-06-26T16:52:06;7.80;;;5.85;;
27895;SDS011;15241;48.374;10.876;2023-06-26T16:57:06;14.05;;;7.60;;
27895;SDS011;15241;48.374;10.876;2023-06-26T17:02:05;15.13;;;8.65;;
27895;SDS011;15241;48.374;10.876;2023-06-26T17:07:05;8.98;;;7.75;;
27895;SDS011;15241;48.374;10.876;2023-06-26T17:12:05;12.45;;;7.20;;
27895;SDS011;15241;48.374;10.876;2023-06-26T17:17:05;7.87;;;6.78;;
27895;SDS011;15241;48.374;10.876;2023-06-26T17:22:05;8.90;;;7.30;;
27895;SDS011;15241;48.374;10.876;2023-06-26T17:27:13;7.97;;;7.15;;
27895;SDS011;15241;48.374;10.876;2023-06-26T17:32:13;9.13;;;6.85;;
27895;SDS011;15241;48.374;10.876;2023-06-26T17:37:12;11.88;;;7.33;;
27895;SDS011;15241;48.374;10.876;2023-06-26T17:42:11;9.08;;;6.95;;
27895;SDS011;15241;48.374;10.876;2023-06-26T17:47:10;9.50;;;7.62;;
27895;SDS011;15241;48.374;10.876;2023-06-26T17:52:09;9.60;;;6.85;;
27895;SDS011;15241;48.374;10.876;2023-06-26T17:57:08;9.25;;;6.87;;
27895;SDS011;15241;48.374;10.876;2023-06-26T18:02:07;9.53;;;8.43;;
27895;SDS011;15241;48.374;10.876;2023-06-26T18:07:06;11.05;;;7.45;;
27895;SDS011;15241;48.374;10.876;2023-06-26T18:12:06;9.78;;;7.78;;
27895;SDS011;15241;48.374;10.876;2023-06-26T18:17:06;12.30;;;8.30;;
27895;SDS011;15241;48.374;10.876;2023-06-26T18:22:05;9.18;;;7.75;;
27895;SDS011;15241;48.374;10.876;2023-06-26T18:27:05;9.50;;;7.53;;
27895;SDS011;15241;48.374;10.876;2023-06-26T18:32:05;9.08;;;7.17;;
27895;SDS011;15241;48.374;10.876;2023-06-26T18:37:05;8.03;;;6.90;;
27895;SDS011;15241;48.374;10.876;2023-06-26T18:42:05;11.83;;;7.92;;
27895;SDS011;15241;48.374;10.876;2023-06-26T18:47:05;9.65;;;7.45;;
27895;SDS011;15241;48.374;10.876;2023-06-26T18:52:06;8.20;;;7.28;;
27895;SDS011;15241;48.374;10.876;2023-06-26T18:57:05;9.35;;;6.92;;
27895;SDS011;15241;48.374;10.876;2023-06-26T19:02:05;9.60;;;6.97;;
27895;SDS011;15241;48.374;10.876;2023-06-26T19:07:05;10.72;;;7.25;;
27895;SDS011;15241;48.374;10.876;2023-06-26T19:12:05;12.23;;;6.45;;
27895;SDS011;15241;48.374;10.876;2023-06-26T19:17:05;8.65;;;6.97;;
27895;SDS011;15241;48.374;10.876;2023-06-26T19:22:04;8.55;;;6.17;;
27895;SDS011;15241;48.374;10.876;2023-06-26T19:27:04;7.33;;;5.58;;
27895;SDS011;15241;48.374;10.876;2023-06-26T19:32:07;7.60;;;6.62;;
27895;SDS011;15241;48.374;10.876;2023-06-26T19:37:06;8.68;;;6.53;;
27895;SDS011;15241;48.374;10.876;2023-06-26T19:42:07;7.55;;;5.87;;
27895;SDS011;15241;48.374;10.876;2023-06-26T19:47:07;11.45;;;5.80;;
27895;SDS011;15241;48.374;10.876;2023-06-26T19:52:07;10.32;;;6.67;;
27895;SDS011;15241;48.374;10.876;2023-06-26T19:57:06;8.60;;;6.50;;
27895;SDS011;15241;48.374;10.876;2023-06-26T20:02:05;12.63;;;6.75;;
27895;SDS011;15241;48.374;10.876;2023-06-26T20:07:05;8.00;;;6.03;;
27895;SDS011;15241;48.374;10.876;2023-06-26T20:12:05;8.33;;;6.28;;
27895;SDS011;15241;48.374;10.876;2023-06-26T20:17:06;10.35;;;6.35;;
27895;SDS011;15241;48.374;10.876;2023-06-26T20:22:06;6.92;;;5.87;;
27895;SDS011;15241;48.374;10.876;2023-06-26T20:27:05;10.23;;;6.37;;
27895;SDS011;15241;48.374;10.876;2023-06-26T20:32:05;10.35;;;6.35;;
27895;SDS011;15241;48.374;10.876;2023-06-26T20:37:04;8.18;;;6.10;;
27895;SDS011;15241;48.374;10.876;2023-06-26T20:42:05;7.33;;;6.17;;
27895;SDS011;15241;48.374;10.876;2023-06-26T20:47:07;7.75;;;5.65;;
27895;SDS011;15241;48.374;10.876;2023-06-26T20:52:09;7.50;;;5.50;;
27895;SDS011;15241;48.374;10.876;2023-06-26T20:57:09;9.68;;;5.80;;
27895;SDS011;15241;48.374;10.876;2023-06-26T21:02:08;9.55;;;5.37;;
27895;SDS011;15241;48.374;10.876;2023-06-26T21:07:07;8.73;;;4.70;;
27895;SDS011;15241;48.374;10.876;2023-06-26T21:12:07;7.75;;;5.37;;
27895;SDS011;15241;48.374;10.876;2023-06-26T21:17:07;7.80;;;4.50;;
27895;SDS011;15241;48.374;10.876;2023-06-26T21:22:06;10.70;;;4.15;;
27895;SDS011;15241;48.374;10.876;2023-06-26T21:27:06;14.07;;;4.08;;
27895;SDS011;15241;48.374;10.876;2023-06-26T21:32:06;8.80;;;4.17;;
27895;SDS011;15241;48.374;10.876;2023-06-26T21:37:05;7.47;;;3.90;;
27895;SDS011;15241;48.374;10.876;2023-06-26T21:42:05;5.92;;;3.65;;
27895;SDS011;15241;48.374;10.876;2023-06-26T21:47:05;5.40;;;2.98;;
27895;SDS011;15241;48.374;10.876;2023-06-26T21:52:05;4.40;;;2.95;;
27895;SDS011;15241;48.374;10.876;2023-06-26T21:57:05;4.85;;;3.17;;
27895;SDS011;15241;48.374;10.876;2023-06-26T22:02:05;4.25;;;2.70;;
27895;SDS011;15241;48.374;10.876;2023-06-26T22:07:05;4.00;;;2.52;;
27895;SDS011;15241;48.374;10.876;2023-06-26T22:12:05;4.78;;;2.47;;
27895;SDS011;15241;48.374;10.876;2023-06-26T22:17:05;6.20;;;2.40;;
27895;SDS011;15241;48.374;10.876;2023-06-26T22:22:04;9.40;;;2.47;;
27895;SDS011;15241;48.374;10.876;2023-06-26T22:27:04;11.25;;;2.52;;
27895;SDS011;15241;48.374;10.876;2023-06-26T22:32:05;8.68;;;2.00;;
27895;SDS011;15241;48.374;10.876;2023-06-26T22:37:05;5.60;;;2.37;;
27895;SDS011;15241;48.374;10.876;2023-06-26T22:42:05;3.30;;;2.50;;
27895;SDS011;15241;48.374;10.876;2023-06-26T22:47:05;5.70;;;2.10;;
27895;SDS011;15241;48.374;10.876;2023-06-26T22:52:05;4.67;;;2.10;;
27895;SDS011;15241;48.374;10.876;2023-06-26T22:57:05;3.95;;;1.80;;
27895;SDS011;15241;48.374;10.876;2023-06-26T23:02:05;7.53;;;2.00;;
27895;SDS011;15241;48.374;10.876;2023-06-26T23:07:05;2.33;;;1.80;;
27895;SDS011;15241;48.374;10.876;2023-06-26T23:12:05;2.37;;;1.82;;
27895;SDS011;15241;48.374;10.876;2023-06-26T23:17:05;5.30;;;2.17;;
27895;SDS011;15241;48.374;10.876;2023-06-26T23:22:05;4.28;;;1.98;;
27895;SDS011;15241;48.374;10.876;2023-06-26T23:27:05;4.67;;;1.82;;
27895;SDS011;15241;48.374;10.876;2023-06-26T23:32:05;4.70;;;1.77;;
27895;SDS011;15241;48.374;10.876;2023-06-26T23:37:08;4.45;;;2.35;;
27895;SDS011;15241;48.374;10.876;2023-06-26T23:42:07;2.25;;;1.65;;
27895;SDS011;15241;48.374;10.876;2023-06-26T23:47:08;6.28;;;1.77;;
27895;SDS011;15241;48.374;10.876;2023-06-26T23:52:07;3.17;;;1.67;;
27895;SDS011;15241;48.374;10.876;2023-06-26T23:57:06;5.40;;;1.72;;
